Time;durP1;ratioP1;P1;durP2;ratioP2;P2;SDS_P1;SDS_P2;PMS_P1;PMS_P2;Temp;Humidity;BMP_temperature;BMP_pressure;BME280_temperature;BME280_humidity;BME280_pressure;Samples;Min_cycle;Max_cycle;Signal;HPM_P1;HPM_P2
2021/10/18 00:02:01;;;;;;;5.32;1.80;;;21.70;63.70;;;;;;5072343;28;20025;-61
2021/10/18 00:04:29;;;;;;;5.22;2.38;;;21.50;64.30;;;;;;5072195;28;20031;-62
2021/10/18 00:06:56;;;;;;;7.15;1.70;;;21.50;65.80;;;;;;5072455;28;20104;-61
2021/10/18 00:09:23;;;;;;;9.52;2.97;;;21.40;65.50;;;;;;5071076;28;20035;-57
2021/10/18 00:11:51;;;;;;;13.38;4.32;;;21.60;63.60;;;;;;5071967;28;20442;-52
2021/10/18 00:14:18;;;;;;;7.28;3.20;;;21.90;63.20;;;;;;5071629;28;20040;-61
2021/10/18 00:16:46;;;;;;;8.60;3.70;;;21.90;63.60;;;;;;5072148;28;20082;-60
2021/10/18 00:19:13;;;;;;;9.00;3.85;;;22.00;59.20;;;;;;5072123;28;20075;-64
2021/10/18 00:21:41;;;;;;;9.57;5.28;;;22.10;58.30;;;;;;5072072;28;20033;-59
2021/10/18 00:24:08;;;;;;;4.43;1.70;;;22.10;61.40;;;;;;5072059;28;20543;-65
2021/10/18 00:26:36;;;;;;;7.72;3.35;;;22.50;53.40;;;;;;5071984;28;20036;-63
2021/10/18 00:29:03;;;;;;;8.23;3.35;;;22.50;59.30;;;;;;5072026;28;20103;-59
2021/10/18 00:31:30;;;;;;;7.90;2.38;;;22.10;61.40;;;;;;5071986;28;20032;-63
2021/10/18 00:33:58;;;;;;;5.53;2.50;;;22.20;55.70;;;;;;5070275;28;20040;-66
2021/10/18 00:36:26;;;;;;;5.40;1.33;;;22.50;55.30;;;;;;5072288;28;20024;-65
2021/10/18 00:38:53;;;;;;;6.00;2.55;;;22.50;51.70;;;;;;5070710;28;20040;-66
2021/10/18 00:41:21;;;;;;;4.10;1.17;;;22.50;52.70;;;;;;5071747;28;20035;-64
2021/10/18 00:43:50;;;;;;;10.52;4.28;;;23.30;50.00;;;;;;5071745;28;20052;-63
2021/10/18 00:46:22;;;;;;;6.88;3.85;;;22.60;59.60;;;;;;5071002;28;20032;-63
2021/10/18 00:48:51;;;;;;;5.40;2.83;;;22.20;60.90;;;;;;5071328;28;20024;-62
2021/10/18 00:51:20;;;;;;;6.35;2.33;;;22.20;61.50;;;;;;5071877;28;20031;-59
2021/10/18 00:53:48;;;;;;;9.93;2.67;;;22.20;60.30;;;;;;5071509;28;20467;-59
2021/10/18 00:56:16;;;;;;;5.18;2.63;;;22.20;59.80;;;;;;5071529;28;20319;-61
2021/10/18 00:58:45;;;;;;;5.07;2.58;;;22.30;61.10;;;;;;5071941;28;20048;-62
2021/10/18 01:01:12;;;;;;;3.65;2.10;;;22.20;60.00;;;;;;5071866;28;20032;-61
2021/10/18 01:03:40;;;;;;;9.40;2.47;;;22.20;60.90;;;;;;5072715;28;20024;-60
2021/10/18 01:06:08;;;;;;;6.40;2.30;;;22.30;56.10;;;;;;5074193;28;20062;-60
2021/10/18 01:08:35;;;;;;;5.88;2.00;;;22.50;59.80;;;;;;5075630;28;20074;-62
2021/10/18 01:11:02;;;;;;;5.50;2.10;;;22.50;57.00;;;;;;5075622;28;20098;-62
2021/10/18 01:13:30;;;;;;;4.03;2.33;;;22.50;59.80;;;;;;5075449;28;20109;-62
2021/10/18 01:16:01;;;;;;;4.32;1.73;;;22.60;59.20;;;;;;5075082;28;20043;-62
2021/10/18 01:18:30;;;;;;;3.13;1.55;;;22.50;59.00;;;;;;5074966;28;20360;-62
2021/10/18 01:20:57;;;;;;;8.45;1.83;;;22.70;57.70;;;;;;5075228;28;20033;-63
2021/10/18 01:23:24;;;;;;;4.68;1.70;;;22.70;55.90;;;;;;5075490;28;20350;-64
2021/10/18 01:25:52;;;;;;;4.15;1.85;;;22.70;57.40;;;;;;5075139;28;20032;-62
2021/10/18 01:28:20;;;;;;;4.97;1.77;;;22.80;57.60;;;;;;5073863;28;20023;-63
2021/10/18 01:30:47;;;;;;;4.78;1.83;;;22.80;58.20;;;;;;5075316;28;20099;-63
2021/10/18 01:33:15;;;;;;;6.50;1.83;;;22.90;57.60;;;;;;5075128;28;20059;-64
2021/10/18 01:35:42;;;;;;;3.40;2.15;;;23.00;53.70;;;;;;5074269;28;20442;-65
2021/10/18 01:38:10;;;;;;;5.20;1.55;;;23.00;56.50;;;;;;5075400;28;20104;-60
2021/10/18 01:40:37;;;;;;;4.53;1.25;;;23.10;55.80;;;;;;5075653;28;20017;-61
2021/10/18 01:43:05;;;;;;;3.45;1.75;;;23.20;55.30;;;;;;5075338;28;20036;-64
2021/10/18 01:45:32;;;;;;;3.83;1.58;;;23.20;52.50;;;;;;5074856;28;20075;-64
2021/10/18 01:48:00;;;;;;;2.40;1.00;;;23.30;55.60;;;;;;5074903;28;20021;-62
2021/10/18 01:50:29;;;;;;;6.05;1.25;;;23.30;53.90;;;;;;5075011;28;20025;-62
2021/10/18 01:52:57;;;;;;;4.60;1.75;;;23.40;55.30;;;;;;5074868;28;20045;-61
2021/10/18 01:55:27;;;;;;;6.63;2.13;;;23.30;56.00;;;;;;5074842;28;20039;-62
2021/10/18 01:57:55;;;;;;;5.82;1.90;;;23.40;51.20;;;;;;5075580;28;20035;-60
2021/10/18 02:00:22;;;;;;;3.03;1.50;;;23.60;55.00;;;;;;5076013;28;20048;-62
2021/10/18 02:02:50;;;;;;;1.13;1.00;;;23.40;56.00;;;;;;5074732;28;20118;-63
2021/10/18 02:05:17;;;;;;;3.25;1.20;;;23.40;55.20;;;;;;5074519;28;20032;-62
2021/10/18 02:07:45;;;;;;;2.15;1.13;;;23.50;51.50;;;;;;5073819;28;20024;-63
2021/10/18 02:10:14;;;;;;;5.20;1.02;;;23.50;55.10;;;;;;5074072;28;20024;-63
2021/10/18 02:12:42;;;;;;;1.95;1.10;;;23.50;54.70;;;;;;5073874;28;20028;-60
2021/10/18 02:15:10;;;;;;;2.45;0.90;;;23.40;55.00;;;;;;5072034;28;20090;-61
2021/10/18 02:17:38;;;;;;;2.85;0.90;;;23.50;50.10;;;;;;5073449;28;20028;-62
2021/10/18 02:20:08;;;;;;;2.30;0.90;;;23.50;50.50;;;;;;5073528;28;20074;-61
2021/10/18 02:22:35;;;;;;;2.00;0.95;;;23.60;52.80;;;;;;5073594;28;20090;-62
2021/10/18 02:25:04;;;;;;;2.40;1.13;;;23.80;49.10;;;;;;5074204;28;20028;-59
2021/10/18 02:27:32;;;;;;;2.13;1.00;;;23.80;49.50;;;;;;5070741;28;20043;-59
2021/10/18 02:30:00;;;;;;;3.42;1.05;;;23.70;49.50;;;;;;5065311;28;20453;-63
2021/10/18 02:32:27;;;;;;;3.08;0.90;;;23.90;46.80;;;;;;5069616;28;20104;-60
2021/10/18 02:34:54;;;;;;;2.72;0.85;;;23.70;49.60;;;;;;5067936;28;20060;-61
2021/10/18 02:37:23;;;;;;;2.50;0.80;;;23.80;49.80;;;;;;5071615;28;20028;-62
2021/10/18 02:39:50;;;;;;;4.10;0.70;;;24.00;47.10;;;;;;5071801;28;20020;-67
2021/10/18 02:42:18;;;;;;;5.07;0.88;;;24.10;47.90;;;;;;5071304;28;20471;-60
2021/10/18 02:44:45;;;;;;;4.30;1.02;;;24.30;49.40;;;;;;5069393;28;20031;-67
2021/10/18 02:47:12;;;;;;;2.65;0.80;;;24.30;48.40;;;;;;5069752;28;20073;-63
2021/10/18 02:49:40;;;;;;;2.63;1.25;;;24.30;50.40;;;;;;5069745;28;20021;-64
2021/10/18 02:52:08;;;;;;;1.40;0.82;;;24.30;49.90;;;;;;5071255;28;20052;-63
2021/10/18 02:54:38;;;;;;;2.08;0.85;;;24.10;50.70;;;;;;5068432;28;20037;-60
2021/10/18 02:57:05;;;;;;;3.00;0.60;;;24.10;48.90;;;;;;5072147;28;20021;-61
2021/10/18 02:59:33;;;;;;;3.40;0.90;;;24.00;50.20;;;;;;5071106;28;20853;-61
2021/10/18 03:02:00;;;;;;;1.50;0.73;;;24.20;49.50;;;;;;5070740;28;20073;-61
2021/10/18 03:04:28;;;;;;;3.95;1.33;;;24.30;50.20;;;;;;5066707;28;20546;-63
2021/10/18 03:06:55;;;;;;;3.47;1.25;;;24.30;50.10;;;;;;5071115;28;20029;-67
2021/10/18 03:09:23;;;;;;;4.55;1.48;;;24.30;50.00;;;;;;5072004;28;20029;-62
2021/10/18 03:11:50;;;;;;;6.05;1.00;;;24.40;49.20;;;;;;5072335;28;20051;-64
2021/10/18 03:14:18;;;;;;;2.08;0.82;;;24.40;48.60;;;;;;5069183;28;20037;-64
2021/10/18 03:16:45;;;;;;;7.18;1.20;;;24.50;47.90;;;;;;5070618;28;20613;-63
2021/10/18 03:19:13;;;;;;;4.03;1.10;;;24.50;50.10;;;;;;5070917;28;20028;-61
2021/10/18 03:21:40;;;;;;;3.75;1.00;;;24.50;50.10;;;;;;5071716;28;20383;-62
2021/10/18 03:24:08;;;;;;;2.92;1.20;;;24.40;50.40;;;;;;5071736;28;20033;-64
2021/10/18 03:26:35;;;;;;;1.67;0.90;;;24.30;50.60;;;;;;5072826;28;20020;-64
2021/10/18 03:29:03;;;;;;;1.88;0.80;;;24.30;50.30;;;;;;5073553;28;20020;-61
2021/10/18 03:31:30;;;;;;;1.23;0.60;;;24.30;50.30;;;;;;5073316;28;20100;-63
2021/10/18 03:33:58;;;;;;;3.42;1.20;;;24.20;51.30;;;;;;5072338;28;20448;-61
2021/10/18 03:36:25;;;;;;;4.25;1.02;;;24.10;51.20;;;;;;5072460;28;20081;-62
2021/10/18 03:38:53;;;;;;;2.33;0.93;;;24.30;51.10;;;;;;5071650;28;20364;-64
2021/10/18 03:41:20;;;;;;;3.70;1.20;;;24.20;51.40;;;;;;5072738;28;20136;-64
2021/10/18 03:43:47;;;;;;;3.13;1.20;;;24.20;51.80;;;;;;5072209;28;20016;-66
2021/10/18 03:46:15;;;;;;;2.95;1.38;;;24.20;51.40;;;;;;5072363;28;20494;-64
2021/10/18 03:48:42;;;;;;;1.42;0.85;;;24.30;51.70;;;;;;5072346;28;20028;-65
2021/10/18 03:51:10;;;;;;;4.05;1.08;;;24.30;51.90;;;;;;5071902;28;20044;-64
2021/10/18 03:53:37;;;;;;;2.50;0.90;;;24.20;51.60;;;;;;5072960;28;20033;-64
2021/10/18 03:56:08;;;;;;;3.00;1.05;;;24.20;51.80;;;;;;5072277;28;20044;-63
2021/10/18 03:58:38;;;;;;;3.60;0.90;;;24.20;51.80;;;;;;5072203;28;20083;-62
2021/10/18 04:01:09;;;;;;;4.38;0.77;;;24.20;52.10;;;;;;5072146;28;20512;-65
2021/10/18 04:03:37;;;;;;;3.13;1.00;;;24.20;51.60;;;;;;5072167;28;20122;-62
2021/10/18 04:06:05;;;;;;;2.35;0.77;;;24.20;52.20;;;;;;5072077;28;20280;-63
2021/10/18 04:08:32;;;;;;;2.58;1.00;;;24.20;52.00;;;;;;5071859;28;20028;-63
2021/10/18 04:11:01;;;;;;;4.93;1.25;;;24.20;51.70;;;;;;5072149;28;20029;-63
2021/10/18 04:13:28;;;;;;;7.25;1.02;;;24.20;52.10;;;;;;5071203;28;20119;-62
2021/10/18 04:15:56;;;;;;;2.70;0.98;;;24.10;52.30;;;;;;5071247;28;20033;-59
2021/10/18 04:18:24;;;;;;;3.00;1.08;;;24.00;52.40;;;;;;5054744;28;20021;-62
2021/10/18 04:20:51;;;;;;;3.03;1.08;;;24.00;51.90;;;;;;5072780;28;20034;-62
2021/10/18 04:23:19;;;;;;;4.38;0.80;;;24.00;53.20;;;;;;5072740;28;20025;-54
2021/10/18 04:25:47;;;;;;;4.30;1.13;;;23.90;53.50;;;;;;5072622;28;20727;-56
2021/10/18 04:28:14;;;;;;;2.53;1.00;;;23.70;54.20;;;;;;5072468;28;20024;-58
2021/10/18 04:30:41;;;;;;;2.67;0.93;;;23.60;54.60;;;;;;5071268;28;20029;-56
2021/10/18 04:33:09;;;;;;;3.13;0.80;;;23.70;54.70;;;;;;5072480;28;20020;-59
2021/10/18 04:35:36;;;;;;;3.88;1.02;;;23.80;54.50;;;;;;5072350;28;20418;-59
2021/10/18 04:38:04;;;;;;;2.92;0.95;;;23.90;54.90;;;;;;5072685;28;20477;-59
2021/10/18 04:40:32;;;;;;;4.18;1.17;;;24.00;55.00;;;;;;5075331;28;20059;-58
2021/10/18 04:42:59;;;;;;;5.00;1.20;;;23.90;54.50;;;;;;5076590;28;20482;-64
2021/10/18 04:45:27;;;;;;;2.70;1.13;;;24.00;55.30;;;;;;5076534;28;20029;-63
2021/10/18 04:47:54;;;;;;;2.15;0.98;;;24.00;55.20;;;;;;5076142;28;20055;-63
2021/10/18 04:50:23;;;;;;;5.03;0.98;;;24.10;55.00;;;;;;5076528;28;20021;-59
2021/10/18 04:52:51;;;;;;;2.45;1.15;;;24.00;55.60;;;;;;5076207;28;20064;-56
2021/10/18 04:55:18;;;;;;;3.10;1.13;;;24.00;55.50;;;;;;5076291;28;20040;-59
2021/10/18 04:57:57;;;;;;;3.17;0.90;;;24.00;55.10;;;;;;5076448;28;20429;-56
2021/10/18 05:00:26;;;;;;;2.63;0.93;;;23.90;55.90;;;;;;5076449;28;20040;-59
2021/10/18 05:02:57;;;;;;;4.38;1.10;;;23.90;55.90;;;;;;5074795;28;20025;-63
2021/10/18 05:05:24;;;;;;;2.13;0.88;;;23.90;55.80;;;;;;5076299;28;20108;-58
2021/10/18 05:08:13;;;;;;;1.65;1.05;;;23.90;56.40;;;;;;5075748;28;20031;-61
2021/10/18 05:10:42;;;;;;;3.63;0.90;;;23.80;57.30;;;;;;5075874;28;20029;-60
2021/10/18 05:13:12;;;;;;;2.15;1.23;;;23.70;56.60;;;;;;5076076;28;20024;-64
2021/10/18 05:15:39;;;;;;;3.28;1.27;;;23.60;56.80;;;;;;5075543;28;20032;-56
2021/10/18 05:18:07;;;;;;;0.98;0.60;;;23.60;57.00;;;;;;5075415;28;20096;-59
2021/10/18 05:20:36;;;;;;;3.00;1.30;;;23.50;57.80;;;;;;5075584;28;20025;-63
2021/10/18 05:23:04;;;;;;;4.70;1.10;;;23.50;58.80;;;;;;5076059;28;20054;-62
2021/10/18 05:25:32;;;;;;;1.50;0.70;;;23.40;57.70;;;;;;5075610;28;20024;-61
2021/10/18 05:28:00;;;;;;;1.40;0.75;;;23.40;57.70;;;;;;5073779;28;20056;-62
2021/10/18 05:30:30;;;;;;;2.67;0.88;;;23.30;57.90;;;;;;5075692;28;20403;-62
2021/10/18 05:32:59;;;;;;;1.38;0.73;;;23.30;58.10;;;;;;5073853;28;20076;-64
2021/10/18 05:35:27;;;;;;;2.75;0.88;;;23.20;58.40;;;;;;5075348;28;20039;-63
2021/10/18 05:37:55;;;;;;;6.80;1.83;;;23.10;58.60;;;;;;5075500;28;20052;-64
2021/10/18 05:40:23;;;;;;;5.30;1.75;;;23.30;58.60;;;;;;5075036;28;20025;-65
2021/10/18 05:42:52;;;;;;;3.47;1.30;;;23.30;59.70;;;;;;5075309;28;20065;-67
2021/10/18 05:45:22;;;;;;;4.50;1.00;;;23.20;58.00;;;;;;5074972;28;20044;-66
2021/10/18 05:48:00;;;;;;;3.53;1.23;;;23.10;57.80;;;;;;5064045;28;20146;-63
2021/10/18 05:50:33;;;;;;;3.38;1.20;;;22.90;58.50;;;;;;5070235;28;20058;-62
2021/10/18 05:53:01;;;;;;;4.30;1.25;;;22.70;59.80;;;;;;5071678;28;20563;-62
2021/10/18 05:55:29;;;;;;;4.60;1.33;;;22.80;58.60;;;;;;5073391;28;20116;-63
2021/10/18 05:57:58;;;;;;;4.40;1.00;;;22.90;58.60;;;;;;5073480;28;20020;-62
2021/10/18 06:00:26;;;;;;;6.85;1.67;;;23.00;59.10;;;;;;5071300;28;20036;-64
2021/10/18 06:02:54;;;;;;;3.58;1.85;;;22.50;61.60;;;;;;5073517;28;20047;-63
2021/10/18 06:05:24;;;;;;;5.88;2.97;;;22.50;61.30;;;;;;5072784;28;20569;-64
2021/10/18 06:07:52;;;;;;;5.72;1.42;;;22.50;60.90;;;;;;5073670;28;20036;-61
2021/10/18 06:10:20;;;;;;;6.93;3.28;;;22.50;60.20;;;;;;5072513;28;20047;-63
2021/10/18 06:12:47;;;;;;;6.28;4.20;;;22.60;60.70;;;;;;5074336;28;20077;-63
2021/10/18 06:15:14;;;;;;;9.55;3.60;;;22.50;61.20;;;;;;5073281;28;20475;-64
2021/10/18 06:17:44;;;;;;;13.23;5.82;;;22.50;61.50;;;;;;5073950;28;20032;-64
2021/10/18 06:20:11;;;;;;;9.75;4.75;;;22.40;61.90;;;;;;5073476;28;20503;-64
2021/10/18 06:22:39;;;;;;;7.60;5.57;;;22.40;61.80;;;;;;5073842;28;20048;-62
2021/10/18 06:25:07;;;;;;;5.93;2.58;;;22.40;62.70;;;;;;5072655;28;20033;-62
2021/10/18 06:27:34;;;;;;;10.55;5.05;;;22.40;61.80;;;;;;5073866;28;20020;-65
2021/10/18 06:30:02;;;;;;;8.30;5.22;;;22.30;62.30;;;;;;5072131;28;20032;-66
2021/10/18 06:32:30;;;;;;;7.93;4.47;;;22.40;62.50;;;;;;5073971;28;20059;-66
2021/10/18 06:34:57;;;;;;;7.95;6.55;;;22.40;62.10;;;;;;5073867;28;20040;-65
2021/10/18 06:37:24;;;;;;;5.15;2.55;;;22.40;62.30;;;;;;5073903;28;20375;-63
2021/10/18 06:39:52;;;;;;;6.95;4.47;;;22.40;61.90;;;;;;5073512;28;20021;-65
2021/10/18 06:42:19;;;;;;;8.75;2.30;;;22.60;61.70;;;;;;5072043;28;20036;-63
2021/10/18 06:44:47;;;;;;;13.88;9.07;;;22.80;60.80;;;;;;5072637;28;20024;-62
2021/10/18 06:47:14;;;;;;;7.68;5.57;;;22.60;61.00;;;;;;5073423;28;20534;-63
2021/10/18 06:49:41;;;;;;;5.05;2.45;;;22.30;62.90;;;;;;5073925;28;20044;-64
2021/10/18 06:52:09;;;;;;;4.15;1.33;;;22.40;62.80;;;;;;5073276;28;20048;-62
2021/10/18 06:54:45;;;;;;;7.43;1.67;;;22.10;61.00;;;;;;5073665;28;20024;-64
2021/10/18 06:57:12;;;;;;;7.07;3.00;;;22.10;61.00;;;;;;5073215;28;20036;-68
2021/10/18 06:59:39;;;;;;;5.57;1.55;;;22.30;61.70;;;;;;5072834;28;20078;-63
2021/10/18 07:02:07;;;;;;;9.95;3.92;;;22.30;60.50;;;;;;5072221;28;20031;-66
2021/10/18 07:04:38;;;;;;;6.72;4.25;;;22.10;61.30;;;;;;5065452;28;20025;-65
2021/10/18 07:07:06;;;;;;;4.60;3.92;;;22.10;62.90;;;;;;5071634;28;20502;-62
2021/10/18 07:09:33;;;;;;;7.72;3.80;;;22.20;63.50;;;;;;5069872;28;20365;-60
2021/10/18 07:12:01;;;;;;;9.90;4.65;;;22.20;63.90;;;;;;5071580;28;20036;-59
2021/10/18 07:14:28;;;;;;;11.18;4.05;;;22.20;63.20;;;;;;5070757;28;20419;-59
2021/10/18 07:16:55;;;;;;;7.35;3.50;;;22.20;63.10;;;;;;5071608;28;20035;-63
2021/10/18 07:19:23;;;;;;;5.97;3.97;;;22.20;63.50;;;;;;5068717;28;20487;-58
2021/10/18 07:21:50;;;;;;;4.90;3.60;;;22.10;63.60;;;;;;5070256;28;20025;-65
2021/10/18 07:24:17;;;;;;;6.88;3.38;;;22.10;63.90;;;;;;5071110;28;20109;-59
2021/10/18 07:26:50;;;;;;;4.35;2.97;;;22.10;64.30;;;;;;5070837;28;20055;-63
2021/10/18 07:29:17;;;;;;;;;;;22.10;64.20;;;;;;5067524;28;20017;-60
2021/10/18 07:31:44;;;;;;;5.47;2.92;;;22.10;64.20;;;;;;5071174;28;19904;-63
2021/10/18 07:34:14;;;;;;;4.28;2.88;;;22.10;64.30;;;;;;5070700;28;20589;-62
2021/10/18 07:36:49;;;;;;;5.47;2.80;;;22.00;64.30;;;;;;5066860;28;20124;-64
2021/10/18 07:39:22;;;;;;;6.63;2.80;;;22.10;64.60;;;;;;5065689;28;20025;-61
2021/10/18 07:41:51;;;;;;;4.88;2.50;;;22.00;64.80;;;;;;5072399;28;20111;-60
2021/10/18 07:44:19;;;;;;;4.65;3.25;;;22.00;64.90;;;;;;5072760;28;20056;-59
2021/10/18 07:46:47;;;;;;;4.30;2.42;;;22.00;64.90;;;;;;5072685;28;20035;-59
2021/10/18 07:49:15;;;;;;;5.00;2.25;;;21.90;64.80;;;;;;5071827;28;20538;-61
2021/10/18 07:51:42;;;;;;;6.00;2.55;;;21.90;65.10;;;;;;5071518;28;20519;-62
2021/10/18 07:54:11;;;;;;;5.13;2.03;;;21.90;65.30;;;;;;5071504;28;20082;-60
2021/10/18 07:56:38;;;;;;;14.85;1.67;;;21.90;64.40;;;;;;5072400;28;20089;-64
2021/10/18 07:59:06;;;;;;;12.43;1.92;;;21.80;64.00;;;;;;5072878;28;20032;-56
2021/10/18 08:01:33;;;;;;;5.15;1.50;;;21.80;63.70;;;;;;5071728;28;20035;-64
2021/10/18 08:04:00;;;;;;;2.85;1.35;;;21.60;62.80;;;;;;5072840;28;20025;-65
2021/10/18 08:06:28;;;;;;;7.18;2.00;;;21.60;63.20;;;;;;5071732;28;20032;-61
2021/10/18 08:08:56;;;;;;;11.48;1.60;;;21.60;63.40;;;;;;5072659;28;20166;-56
2021/10/18 08:11:23;;;;;;;6.95;1.70;;;21.60;62.90;;;;;;5063050;28;20424;-62
2021/10/18 08:13:51;;;;;;;8.13;1.40;;;21.60;65.60;;;;;;5068488;28;20154;-55
2021/10/18 08:16:18;;;;;;;4.90;2.00;;;21.60;65.90;;;;;;5069868;28;20040;-61
2021/10/18 08:18:45;;;;;;;15.63;2.03;;;21.70;66.30;;;;;;5070758;28;20100;-64
2021/10/18 08:21:13;;;;;;;11.48;2.30;;;21.70;68.30;;;;;;5068371;28;20038;-57
2021/10/18 08:23:41;;;;;;;10.10;2.00;;;21.80;65.30;;;;;;5070966;28;20024;-56
2021/10/18 08:26:09;;;;;;;9.55;2.38;;;21.80;66.10;;;;;;5070541;28;20025;-61
2021/10/18 08:28:39;;;;;;;16.42;2.03;;;21.90;67.30;;;;;;5069572;28;20028;-57
2021/10/18 08:31:09;;;;;;;11.65;1.75;;;21.80;68.20;;;;;;5064439;28;20132;-58
2021/10/18 08:33:37;;;;;;;21.30;2.50;;;21.90;65.60;;;;;;5070774;28;20031;-53
2021/10/18 08:36:07;;;;;;;10.93;2.13;;;21.90;71.10;;;;;;5069568;28;20044;-59
2021/10/18 08:38:48;;;;;;;14.30;2.83;;;21.90;69.50;;;;;;5067603;28;20024;-54
2021/10/18 08:44:15;;;;;;;10.95;2.45;;;21.90;67.70;;;;;;5044124;28;20115;-52
2021/10/18 08:46:53;;;;;;;13.63;2.33;;;21.90;68.80;;;;;;5067669;28;20032;-54
2021/10/18 08:49:25;;;;;;;7.75;2.58;;;21.90;72.60;;;;;;5064396;28;20485;-52
2021/10/18 08:51:53;;;;;;;5.55;2.50;;;21.90;65.90;;;;;;5064286;28;20098;-58
2021/10/18 08:54:20;;;;;;;9.38;2.50;;;21.80;69.90;;;;;;5069954;28;20062;-58
2021/10/18 08:56:47;;;;;;;8.30;2.22;;;21.70;70.50;;;;;;5067795;28;20036;-51
2021/10/18 08:59:16;;;;;;;16.02;3.10;;;21.70;69.70;;;;;;5065845;28;20033;-55
2021/10/18 09:01:58;;;;;;;16.27;2.60;;;21.80;71.10;;;;;;5065644;28;20028;-53
2021/10/18 09:04:31;;;;;;;7.55;2.33;;;21.80;69.20;;;;;;5067426;28;20491;-59
2021/10/18 09:07:05;;;;;;;13.38;2.20;;;21.80;70.20;;;;;;5067446;28;20036;-55
2021/10/18 09:09:51;;;;;;;8.15;2.10;;;21.80;71.20;;;;;;5062577;28;20036;-58
2021/10/18 09:12:28;;;;;;;6.40;1.70;;;21.70;70.80;;;;;;5066180;28;20483;-58
2021/10/18 09:15:21;;;;;;;15.43;2.55;;;21.70;69.60;;;;;;5054044;28;20045;-54
2021/10/18 09:17:56;;;;;;;8.25;2.50;;;21.70;73.80;;;;;;5068727;28;20582;-50
2021/10/18 09:20:26;;;;;;;9.18;1.80;;;21.70;70.60;;;;;;5069618;28;20032;-58
2021/10/18 09:22:55;;;;;;;11.35;2.25;;;21.70;70.90;;;;;;5068867;28;20021;-54
2021/10/18 09:25:41;;;;;;;5.97;2.00;;;21.70;69.80;;;;;;5073150;28;20060;-52
2021/10/18 09:28:11;;;;;;;5.68;1.85;;;21.60;70.20;;;;;;5072378;28;20116;-62
2021/10/18 09:30:46;;;;;;;4.40;1.40;;;21.70;71.30;;;;;;5072111;28;20029;-66
2021/10/18 09:33:21;;;;;;;6.82;1.75;;;21.60;70.60;;;;;;5072629;28;20024;-64
2021/10/18 09:35:50;;;;;;;4.65;2.03;;;21.60;70.40;;;;;;5073769;28;20044;-66
2021/10/18 09:38:20;;;;;;;9.55;2.70;;;21.60;70.90;;;;;;5073892;28;20506;-63
2021/10/18 09:40:48;;;;;;;5.63;1.70;;;21.60;71.20;;;;;;5073155;28;20360;-61
2021/10/18 09:46:21;;;;;;;9.18;2.28;;;21.60;70.80;;;;;;5072805;28;20356;-63
2021/10/18 10:52:49;;;;;;;5.47;1.65;;;21.30;73.30;;;;;;5069074;28;20051;-59
2021/10/18 10:55:24;;;;;;;3.85;1.80;;;21.30;73.40;;;;;;5071184;28;20514;-60
2021/10/18 10:57:54;;;;;;;3.47;1.48;;;21.30;73.40;;;;;;5070643;28;20033;-61
2021/10/18 11:00:40;;;;;;;5.22;1.23;;;21.30;73.30;;;;;;5067275;28;20655;-58
2021/10/18 11:06:21;;;;;;;4.90;2.05;;;21.30;73.20;;;;;;5065471;28;20117;-62
2021/10/18 11:08:48;;;;;;;4.93;1.90;;;21.20;73.10;;;;;;5070719;28;20166;-63
2021/10/18 11:11:19;;;;;;;3.08;1.60;;;21.30;73.10;;;;;;5066669;28;20324;-61
2021/10/18 11:13:57;;;;;;;4.10;1.50;;;21.20;73.10;;;;;;5068757;28;20154;-64
2021/10/18 11:16:28;;;;;;;3.13;1.70;;;21.30;73.10;;;;;;5069567;28;20029;-62
2021/10/18 11:18:59;;;;;;;3.70;1.52;;;21.30;73.20;;;;;;5070081;28;20382;-61
2021/10/18 11:21:43;;;;;;;2.10;1.10;;;21.20;73.10;;;;;;5067174;28;20032;-65
2021/10/18 11:24:14;;;;;;;4.13;1.45;;;21.20;73.10;;;;;;5069463;28;20028;-62
2021/10/18 11:26:42;;;;;;;9.48;2.00;;;21.20;73.10;;;;;;5073761;28;20021;-65
2021/10/18 11:29:12;;;;;;;6.47;1.58;;;21.20;73.20;;;;;;5073750;28;20104;-63
2021/10/18 11:31:44;;;;;;;5.25;1.85;;;21.20;73.00;;;;;;5073465;28;20021;-64
2021/10/18 11:34:13;;;;;;;3.55;1.50;;;21.10;73.10;;;;;;5073420;28;20593;-62
2021/10/18 11:36:45;;;;;;;3.13;1.65;;;21.10;73.10;;;;;;5073428;28;20036;-64
2021/10/18 11:39:26;;;;;;;4.07;1.92;;;21.10;73.40;;;;;;5073308;28;20364;-63
2021/10/18 11:42:14;;;;;;;6.53;1.90;;;21.10;73.50;;;;;;5072428;28;20043;-63
2021/10/18 11:44:47;;;;;;;3.33;1.30;;;21.00;73.50;;;;;;5073174;28;20092;-64
2021/10/18 11:47:30;;;;;;;6.38;1.58;;;21.00;73.50;;;;;;5072682;28;20016;-60
2021/10/18 11:50:20;;;;;;;3.22;1.40;;;21.00;73.60;;;;;;5072985;28;20386;-64
2021/10/18 11:52:51;;;;;;;3.65;1.45;;;21.00;73.60;;;;;;5072320;28;20344;-64
2021/10/18 11:55:29;;;;;;;5.00;1.52;;;21.00;73.70;;;;;;5073261;28;20032;-56
2021/10/18 11:58:01;;;;;;;3.13;1.10;;;20.90;73.70;;;;;;5071924;28;20029;-66
2021/10/18 12:00:30;;;;;;;;;;;20.90;73.90;;;;;;5073690;28;20037;-64
2021/10/18 12:03:01;;;;;;;4.25;1.77;;;20.80;73.80;;;;;;5073120;28;19908;-62
2021/10/18 12:05:40;;;;;;;5.18;1.92;;;20.80;73.80;;;;;;5072018;28;20033;-64
2021/10/18 12:08:08;;;;;;;4.20;1.85;;;20.80;73.90;;;;;;5072587;28;20108;-64
2021/10/18 12:10:37;;;;;;;3.22;1.35;;;20.80;73.70;;;;;;5072880;28;20028;-63
2021/10/18 12:13:14;;;;;;;2.85;1.40;;;20.80;73.70;;;;;;5072818;28;20533;-65
2021/10/18 12:16:06;;;;;;;4.50;1.80;;;20.80;74.00;;;;;;5073012;28;20115;-63
2021/10/18 12:18:44;;;;;;;3.08;1.38;;;20.70;74.00;;;;;;5073097;28;20090;-62
2021/10/18 12:21:31;;;;;;;2.40;1.33;;;20.70;74.10;;;;;;5072801;28;20040;-63
2021/10/18 12:24:02;;;;;;;3.00;1.38;;;20.70;73.90;;;;;;5073000;28;20071;-65
2021/10/18 12:26:40;;;;;;;5.82;1.80;;;20.60;73.90;;;;;;5072715;28;20055;-65
2021/10/18 12:29:10;;;;;;;2.05;1.20;;;20.60;73.90;;;;;;5072517;28;20116;-65
2021/10/18 12:31:44;;;;;;;3.47;1.83;;;20.60;74.00;;;;;;5072912;28;20232;-64
2021/10/18 12:34:27;;;;;;;2.92;1.33;;;20.60;74.10;;;;;;5072680;28;20025;-64
2021/10/18 12:36:57;;;;;;;3.58;1.73;;;20.60;74.10;;;;;;5072749;28;20497;-65
2021/10/18 12:39:42;;;;;;;3.80;1.75;;;20.60;74.30;;;;;;5072575;28;20021;-63
2021/10/18 12:42:14;;;;;;;5.78;2.72;;;20.60;74.30;;;;;;5073104;28;20052;-64
2021/10/18 12:44:46;;;;;;;5.10;1.70;;;20.60;74.80;;;;;;5072539;28;20035;-65
2021/10/18 12:47:23;;;;;;;;;;;20.60;74.40;;;;;;5072868;28;20056;-65
2021/10/18 12:50:00;;;;;;;3.35;1.30;;;20.50;74.40;;;;;;5072734;28;19904;-66
2021/10/18 12:52:32;;;;;;;4.47;1.67;;;20.50;74.20;;;;;;5072629;28;20056;-66
2021/10/18 12:55:10;;;;;;;2.67;1.35;;;20.50;74.30;;;;;;5072251;28;20428;-63
2021/10/18 12:57:45;;;;;;;3.10;1.42;;;20.50;74.20;;;;;;5072532;28;20031;-63
2021/10/18 13:00:14;;;;;;;4.22;1.75;;;20.40;74.20;;;;;;5074531;28;20059;-60
2021/10/18 13:02:46;;;;;;;2.08;1.30;;;20.50;74.50;;;;;;5076356;28;20029;-60
2021/10/18 13:05:20;;;;;;;2.75;1.55;;;20.40;74.10;;;;;;5076127;28;20344;-61
2021/10/18 13:08:01;;;;;;;4.18;1.40;;;20.40;74.50;;;;;;5076296;28;20066;-63
2021/10/18 13:10:34;;;;;;;3.63;1.58;;;20.40;74.20;;;;;;5075922;28;20025;-60
2021/10/18 13:13:08;;;;;;;3.05;1.45;;;20.40;73.70;;;;;;5069062;28;20164;-60
2021/10/18 13:15:37;;;;;;;3.03;1.38;;;20.40;73.80;;;;;;5071481;28;20094;-60
2021/10/18 13:18:06;;;;;;;3.33;1.77;;;20.30;73.90;;;;;;5070762;28;20025;-63
2021/10/18 13:20:33;;;;;;;3.30;1.38;;;20.30;73.70;;;;;;5072407;28;20033;-61
2021/10/18 13:23:05;;;;;;;2.88;1.30;;;20.30;73.90;;;;;;5072231;28;20359;-61
2021/10/18 13:25:37;;;;;;;2.53;1.42;;;20.30;74.20;;;;;;5072279;28;20020;-60
2021/10/18 13:28:06;;;;;;;3.97;1.80;;;20.30;73.70;;;;;;5072851;28;20029;-60
2021/10/18 13:30:34;;;;;;;3.78;1.85;;;20.30;74.10;;;;;;5070921;28;21751;-61
2021/10/18 13:33:02;;;;;;;3.25;1.30;;;20.20;74.10;;;;;;5071981;28;20028;-59
2021/10/18 13:35:30;;;;;;;2.90;1.70;;;20.20;73.80;;;;;;5072390;28;20047;-59
2021/10/18 13:37:58;;;;;;;2.75;1.30;;;20.20;73.90;;;;;;5072543;28;20033;-65
2021/10/18 13:40:27;;;;;;;1.80;1.30;;;20.20;73.80;;;;;;5069806;28;20025;-64
2021/10/18 13:42:56;;;;;;;4.25;1.40;;;20.20;73.80;;;;;;5072410;28;20029;-61
2021/10/18 13:45:24;;;;;;;3.72;1.58;;;20.20;73.90;;;;;;5071271;28;20028;-61
2021/10/18 13:47:52;;;;;;;2.70;1.60;;;20.20;74.60;;;;;;5072484;28;20070;-64
2021/10/18 13:50:20;;;;;;;2.53;1.50;;;20.10;73.80;;;;;;5067891;28;20039;-60
2021/10/18 13:52:56;;;;;;;3.25;1.42;;;20.10;74.10;;;;;;5072034;28;20045;-61
2021/10/18 13:55:25;;;;;;;7.90;2.35;;;20.10;73.80;;;;;;5071793;28;20360;-61
2021/10/18 13:57:54;;;;;;;3.05;1.50;;;20.10;74.00;;;;;;5071882;28;20020;-64
2021/10/18 14:00:22;;;;;;;3.10;1.48;;;20.10;73.80;;;;;;5068224;28;20409;-61
2021/10/18 14:02:50;;;;;;;2.33;1.67;;;20.00;73.90;;;;;;5071531;28;20033;-61
2021/10/18 14:05:18;;;;;;;3.88;1.95;;;20.10;74.00;;;;;;5072288;28;20024;-64
2021/10/18 14:07:45;;;;;;;5.18;1.55;;;20.10;74.00;;;;;;5072491;28;20498;-63
2021/10/18 14:10:15;;;;;;;3.40;1.52;;;20.10;74.00;;;;;;5068415;28;20025;-63
2021/10/18 14:12:44;;;;;;;3.60;1.70;;;20.00;73.80;;;;;;5071160;28;20017;-60
2021/10/18 14:15:12;;;;;;;2.45;1.52;;;20.00;74.00;;;;;;5071755;28;20028;-61